sensor_id;sensor_type;location;lat;lon;timestamp;temperature;humidity
9265;DHT22;4669;49.594;10.958;2023-04-03T04:29:16;4.80;99.90
9265;DHT22;4669;49.594;10.958;2023-04-03T04:34:21;4.80;99.90
9265;DHT22;4669;49.594;10.958;2023-04-03T04:39:24;4.70;99.90
9265;DHT22;4669;49.594;10.958;2023-04-03T04:44:30;4.60;99.90
9265;DHT22;4669;49.594;10.958;2023-04-03T04:49:32;4.60;99.90
9265;DHT22;4669;49.594;10.958;2023-04-03T04:54:35;4.50;99.90
9265;DHT22;4669;49.594;10.958;2023-04-03T04:59:39;4.40;99.90
9265;DHT22;4669;49.594;10.958;2023-04-03T05:04:42;4.40;99.90
9265;DHT22;4669;49.594;10.958;2023-04-03T05:09:50;4.40;99.90
9265;DHT22;4669;49.594;10.958;2023-04-03T05:14:54;4.40;99.90
9265;DHT22;4669;49.594;10.958;2023-04-03T05:19:56;4.40;99.90
9265;DHT22;4669;49.594;10.958;2023-04-03T05:25:00;4.40;99.90
9265;DHT22;4669;49.594;10.958;2023-04-03T05:30:05;4.30;99.90
9265;DHT22;4669;49.594;10.958;2023-04-03T05:35:09;4.30;99.90
9265;DHT22;4669;49.594;10.958;2023-04-03T05:40:12;4.20;99.90
9265;DHT22;4669;49.594;10.958;2023-04-03T05:45:19;4.20;99.90
9265;DHT22;4669;49.594;10.958;2023-04-03T05:50:22;4.30;99.90
9265;DHT22;4669;49.594;10.958;2023-04-03T05:55:26;4.30;99.90
9265;DHT22;4669;49.594;10.958;2023-04-03T06:00:30;4.40;99.90
9265;DHT22;4669;49.594;10.958;2023-04-03T06:05:36;4.40;99.90
9265;DHT22;4669;49.594;10.958;2023-04-03T06:10:38;4.60;99.90
9265;DHT22;4669;49.594;10.958;2023-04-03T06:15:42;4.70;99.90
9265;DHT22;4669;49.594;10.958;2023-04-03T06:20:45;4.70;99.90
9265;DHT22;4669;49.594;10.958;2023-04-03T06:25:47;4.70;99.90
9265;DHT22;4669;49.594;10.958;2023-04-03T06:30:51;4.70;99.90
9265;DHT22;4669;49.594;10.958;2023-04-03T06:35:57;4.70;99.90
9265;DHT22;4669;49.594;10.958;2023-04-03T06:40:59;4.70;99.90
9265;DHT22;4669;49.594;10.958;2023-04-03T06:46:03;4.90;99.90
9265;DHT22;4669;49.594;10.958;2023-04-03T06:51:05;4.90;99.90
9265;DHT22;4669;49.594;10.958;2023-04-03T06:56:08;4.90;99.90
9265;DHT22;4669;49.594;10.958;2023-04-03T07:01:12;5.00;99.90
9265;DHT22;4669;49.594;10.958;2023-04-03T07:06:16;4.90;99.90
9265;DHT22;4669;49.594;10.958;2023-04-03T07:11:18;5.00;99.90
9265;DHT22;4669;49.594;10.958;2023-04-03T07:16:22;5.10;99.90
9265;DHT22;4669;49.594;10.958;2023-04-03T07:21:24;5.00;99.90
9265;DHT22;4669;49.594;10.958;2023-04-03T07:26:26;4.90;99.90
9265;DHT22;4669;49.594;10.958;2023-04-03T07:31:30;4.90;99.90
9265;DHT22;4669;49.594;10.958;2023-04-03T07:36:32;5.10;99.90
9265;DHT22;4669;49.594;10.958;2023-04-03T07:41:34;5.20;99.90
9265;DHT22;4669;49.594;10.958;2023-04-03T07:46:38;5.20;99.90
9265;DHT22;4669;49.594;10.958;2023-04-03T07:51:41;5.30;99.90
9265;DHT22;4669;49.594;10.958;2023-04-03T07:56:43;5.20;99.90
9265;DHT22;4669;49.594;10.958;2023-04-03T08:01:47;5.10;99.90
9265;DHT22;4669;49.594;10.958;2023-04-03T08:06:49;5.20;99.90
9265;DHT22;4669;49.594;10.958;2023-04-03T08:11:51;5.30;99.90
9265;DHT22;4669;49.594;10.958;2023-04-03T08:16:55;5.50;99.60
9265;DHT22;4669;49.594;10.958;2023-04-03T08:21:57;5.50;99.10
9265;DHT22;4669;49.594;10.958;2023-04-03T08:27:01;5.60;99.10
9265;DHT22;4669;49.594;10.958;2023-04-03T08:32:05;5.60;98.80
9265;DHT22;4669;49.594;10.958;2023-04-03T08:37:07;5.60;99.70
9265;DHT22;4669;49.594;10.958;2023-04-03T08:42:16;5.50;98.30
9265;DHT22;4669;49.594;10.958;2023-04-03T08:47:24;5.50;98.10
9265;DHT22;4669;49.594;10.958;2023-04-03T08:52:34;5.50;98.10
9265;DHT22;4669;49.594;10.958;2023-04-03T08:57:40;5.40;99.10
9265;DHT22;4669;49.594;10.958;2023-04-03T09:02:46;5.60;98.00
9265;DHT22;4669;49.594;10.958;2023-04-03T09:07:53;5.60;96.80
9265;DHT22;4669;49.594;10.958;2023-04-03T09:13:01;5.60;97.60
9265;DHT22;4669;49.594;10.958;2023-04-03T09:18:13;5.80;96.50
9265;DHT22;4669;49.594;10.958;2023-04-03T09:23:22;5.80;96.60
9265;DHT22;4669;49.594;10.958;2023-04-03T09:28:27;5.80;95.40
9265;DHT22;4669;49.594;10.958;2023-04-03T09:33:31;5.80;95.00
9265;DHT22;4669;49.594;10.958;2023-04-03T09:38:33;5.70;95.10
9265;DHT22;4669;49.594;10.958;2023-04-03T09:43:37;5.70;94.70
9265;DHT22;4669;49.594;10.958;2023-04-03T09:48:50;5.80;94.70
9265;DHT22;4669;49.594;10.958;2023-04-03T09:53:52;5.70;93.60
9265;DHT22;4669;49.594;10.958;2023-04-03T09:59:12;5.60;94.70
9265;DHT22;4669;49.594;10.958;2023-04-03T10:04:18;5.70;94.20
9265;DHT22;4669;49.594;10.958;2023-04-03T10:09:24;5.80;94.30
9265;DHT22;4669;49.594;10.958;2023-04-03T10:14:26;6.00;93.50
9265;DHT22;4669;49.594;10.958;2023-04-03T10:19:37;6.00;93.50
9265;DHT22;4669;49.594;10.958;2023-04-03T10:24:48;6.10;93.00
9265;DHT22;4669;49.594;10.958;2023-04-03T10:29:57;6.20;94.00
9265;DHT22;4669;49.594;10.958;2023-04-03T10:35:12;6.30;92.60
9265;DHT22;4669;49.594;10.958;2023-04-03T10:40:24;6.30;93.30
9265;DHT22;4669;49.594;10.958;2023-04-03T10:45:47;6.20;92.90
9265;DHT22;4669;49.594;10.958;2023-04-03T10:51:10;6.20;92.80
9265;DHT22;4669;49.594;10.958;2023-04-03T10:56:18;6.20;93.20
9265;DHT22;4669;49.594;10.958;2023-04-03T11:01:24;6.40;92.30
9265;DHT22;4669;49.594;10.958;2023-04-03T11:06:36;6.30;91.70
9265;DHT22;4669;49.594;10.958;2023-04-03T11:11:41;6.30;92.50
9265;DHT22;4669;49.594;10.958;2023-04-03T11:16:46;6.50;93.00
9265;DHT22;4669;49.594;10.958;2023-04-03T11:21:54;6.50;92.50
9265;DHT22;4669;49.594;10.958;2023-04-03T11:26:59;6.60;91.80
9265;DHT22;4669;49.594;10.958;2023-04-03T11:32:17;6.80;91.80
9265;DHT22;4669;49.594;10.958;2023-04-03T11:37:29;6.70;91.40
9265;DHT22;4669;49.594;10.958;2023-04-03T11:42:36;6.70;92.10
9265;DHT22;4669;49.594;10.958;2023-04-03T11:47:45;6.70;91.60
9265;DHT22;4669;49.594;10.958;2023-04-03T11:53:11;6.70;91.00
9265;DHT22;4669;49.594;10.958;2023-04-03T11:58:29;6.80;90.90
9265;DHT22;4669;49.594;10.958;2023-04-03T12:04:06;7.10;90.70
9265;DHT22;4669;49.594;10.958;2023-04-03T12:09:23;7.30;91.10
9265;DHT22;4669;49.594;10.958;2023-04-03T12:14:26;7.30;91.80
9265;DHT22;4669;49.594;10.958;2023-04-03T12:19:36;7.30;91.20
9265;DHT22;4669;49.594;10.958;2023-04-03T12:24:44;7.30;90.00
9265;DHT22;4669;49.594;10.958;2023-04-03T12:29:53;7.20;90.00
9265;DHT22;4669;49.594;10.958;2023-04-03T12:35:08;7.20;90.70
9265;DHT22;4669;49.594;10.958;2023-04-03T12:40:24;7.50;90.20
9265;DHT22;4669;49.594;10.958;2023-04-03T12:45:27;7.40;89.10
9265;DHT22;4669;49.594;10.958;2023-04-03T12:50:31;7.40;90.20
9265;DHT22;4669;49.594;10.958;2023-04-03T12:55:35;7.60;91.40
9265;DHT22;4669;49.594;10.958;2023-04-03T13:00:37;8.10;88.40
9265;DHT22;4669;49.594;10.958;2023-04-03T13:05:44;8.10;89.10
9265;DHT22;4669;49.594;10.958;2023-04-03T13:10:53;8.10;88.10
9265;DHT22;4669;49.594;10.958;2023-04-03T13:15:56;8.50;89.70
9265;DHT22;4669;49.594;10.958;2023-04-03T13:21:01;8.60;86.60
9265;DHT22;4669;49.594;10.958;2023-04-03T13:26:06;8.50;85.80
9265;DHT22;4669;49.594;10.958;2023-04-03T13:31:18;8.50;85.90
9265;DHT22;4669;49.594;10.958;2023-04-03T13:36:23;8.60;87.00
9265;DHT22;4669;49.594;10.958;2023-04-03T13:41:30;8.60;86.50
9265;DHT22;4669;49.594;10.958;2023-04-03T13:46:32;8.90;87.80
9265;DHT22;4669;49.594;10.958;2023-04-03T13:51:38;9.00;87.00
9265;DHT22;4669;49.594;10.958;2023-04-03T13:56:42;9.00;84.80
9265;DHT22;4669;49.594;10.958;2023-04-03T14:01:48;9.00;84.20
9265;DHT22;4669;49.594;10.958;2023-04-03T14:06:52;9.10;82.70
9265;DHT22;4669;49.594;10.958;2023-04-03T14:11:57;9.00;82.00
9265;DHT22;4669;49.594;10.958;2023-04-03T14:17:03;9.10;83.60
9265;DHT22;4669;49.594;10.958;2023-04-03T14:22:16;9.20;82.20
9265;DHT22;4669;49.594;10.958;2023-04-03T14:27:22;8.70;81.40
9265;DHT22;4669;49.594;10.958;2023-04-03T14:32:26;8.60;82.70
9265;DHT22;4669;49.594;10.958;2023-04-03T14:37:30;8.90;82.70
9265;DHT22;4669;49.594;10.958;2023-04-03T14:42:35;9.10;79.70
9265;DHT22;4669;49.594;10.958;2023-04-03T14:47:41;9.10;80.00
9265;DHT22;4669;49.594;10.958;2023-04-03T14:52:44;9.20;79.70
9265;DHT22;4669;49.594;10.958;2023-04-03T14:57:48;9.40;82.10
9265;DHT22;4669;49.594;10.958;2023-04-03T15:02:50;9.90;79.70
9265;DHT22;4669;49.594;10.958;2023-04-03T15:07:54;9.60;78.90
9265;DHT22;4669;49.594;10.958;2023-04-03T15:12:58;9.40;80.70
9265;DHT22;4669;49.594;10.958;2023-04-03T15:18:01;9.60;80.30
9265;DHT22;4669;49.594;10.958;2023-04-03T15:23:03;9.70;80.10
9265;DHT22;4669;49.594;10.958;2023-04-03T15:28:09;9.90;78.60
9265;DHT22;4669;49.594;10.958;2023-04-03T15:33:12;10.20;75.70
9265;DHT22;4669;49.594;10.958;2023-04-03T15:38:16;10.10;77.00
9265;DHT22;4669;49.594;10.958;2023-04-03T15:43:19;10.20;76.50
9265;DHT22;4669;49.594;10.958;2023-04-03T15:48:21;10.40;75.00
9265;DHT22;4669;49.594;10.958;2023-04-03T15:53:23;10.40;75.00
9265;DHT22;4669;49.594;10.958;2023-04-03T15:58:27;10.50;74.10
9265;DHT22;4669;49.594;10.958;2023-04-03T16:03:29;10.60;72.00
9265;DHT22;4669;49.594;10.958;2023-04-03T16:08:31;10.40;72.20
9265;DHT22;4669;49.594;10.958;2023-04-03T16:13:35;10.20;72.70
9265;DHT22;4669;49.594;10.958;2023-04-03T16:18:37;10.30;72.90
9265;DHT22;4669;49.594;10.958;2023-04-03T16:23:39;10.50;72.70
9265;DHT22;4669;49.594;10.958;2023-04-03T16:28:43;10.50;72.40
9265;DHT22;4669;49.594;10.958;2023-04-03T16:33:45;10.30;72.80
9265;DHT22;4669;49.594;10.958;2023-04-03T16:38:47;10.40;72.30
9265;DHT22;4669;49.594;10.958;2023-04-03T16:43:50;10.40;71.20
9265;DHT22;4669;49.594;10.958;2023-04-03T16:48:52;9.70;72.50
9265;DHT22;4669;49.594;10.958;2023-04-03T16:53:54;8.80;73.70
9265;DHT22;4669;49.594;10.958;2023-04-03T16:58:58;8.30;76.00
9265;DHT22;4669;49.594;10.958;2023-04-03T17:04:00;8.00;76.80
9265;DHT22;4669;49.594;10.958;2023-04-03T17:09:02;7.60;76.50
9265;DHT22;4669;49.594;10.958;2023-04-03T17:14:06;7.40;77.80
9265;DHT22;4669;49.594;10.958;2023-04-03T17:19:08;7.10;77.30
9265;DHT22;4669;49.594;10.958;2023-04-03T17:24:11;7.00;77.70
9265;DHT22;4669;49.594;10.958;2023-04-03T17:29:15;6.90;77.90
9265;DHT22;4669;49.594;10.958;2023-04-03T17:34:17;6.80;78.70
9265;DHT22;4669;49.594;10.958;2023-04-03T17:39:19;6.60;79.10
9265;DHT22;4669;49.594;10.958;2023-04-03T17:44:23;6.50;78.90
9265;DHT22;4669;49.594;10.958;2023-04-03T17:49:25;6.30;79.60
9265;DHT22;4669;49.594;10.958;2023-04-03T17:54:27;6.30;79.80
9265;DHT22;4669;49.594;10.958;2023-04-03T17:59:30;6.20;80.10
9265;DHT22;4669;49.594;10.958;2023-04-03T18:04:32;6.10;80.20
9265;DHT22;4669;49.594;10.958;2023-04-03T18:09:35;6.10;81.30
9265;DHT22;4669;49.594;10.958;2023-04-03T18:14:40;6.00;80.00
9265;DHT22;4669;49.594;10.958;2023-04-03T18:19:42;5.90;81.40
9265;DHT22;4669;49.594;10.958;2023-04-03T18:24:44;5.80;80.90
9265;DHT22;4669;49.594;10.958;2023-04-03T18:29:50;5.80;80.90
9265;DHT22;4669;49.594;10.958;2023-04-03T18:34:54;5.70;81.30
9265;DHT22;4669;49.594;10.958;2023-04-03T18:39:56;5.60;81.60
9265;DHT22;4669;49.594;10.958;2023-04-03T18:45:01;5.60;81.50
9265;DHT22;4669;49.594;10.958;2023-04-03T18:50:06;5.60;81.70
9265;DHT22;4669;49.594;10.958;2023-04-03T18:55:08;5.50;82.20
9265;DHT22;4669;49.594;10.958;2023-04-03T19:00:16;5.40;82.60
9265;DHT22;4669;49.594;10.958;2023-04-03T19:05:19;5.40;83.30
9265;DHT22;4669;49.594;10.958;2023-04-03T19:10:21;5.40;83.10
9265;DHT22;4669;49.594;10.958;2023-04-03T19:15:26;5.40;83.60
9265;DHT22;4669;49.594;10.958;2023-04-03T19:20:28;5.30;83.60
9265;DHT22;4669;49.594;10.958;2023-04-03T19:25:30;5.30;84.10
9265;DHT22;4669;49.594;10.958;2023-04-03T19:30:33;5.30;84.70
9265;DHT22;4669;49.594;10.958;2023-04-03T19:35:39;5.20;84.70
9265;DHT22;4669;49.594;10.958;2023-04-03T19:40:41;5.10;84.90
9265;DHT22;4669;49.594;10.958;2023-04-03T19:45:45;5.10;84.20
9265;DHT22;4669;49.594;10.958;2023-04-03T19:50:47;5.10;84.20
9265;DHT22;4669;49.594;10.958;2023-04-03T19:55:49;5.10;84.60
9265;DHT22;4669;49.594;10.958;2023-04-03T20:00:53;5.00;84.60
9265;DHT22;4669;49.594;10.958;2023-04-03T20:05:55;4.90;84.60
9265;DHT22;4669;49.594;10.958;2023-04-03T20:10:57;4.90;84.50
9265;DHT22;4669;49.594;10.958;2023-04-03T20:16:02;4.90;85.00
9265;DHT22;4669;49.594;10.958;2023-04-03T20:21:06;4.80;84.80
9265;DHT22;4669;49.594;10.958;2023-04-03T20:26:08;4.80;85.50
9265;DHT22;4669;49.594;10.958;2023-04-03T20:31:11;4.70;85.80
9265;DHT22;4669;49.594;10.958;2023-04-03T20:36:14;4.70;85.30
9265;DHT22;4669;49.594;10.958;2023-04-03T20:41:16;4.70;85.80
9265;DHT22;4669;49.594;10.958;2023-04-03T20:46:20;4.70;85.50
9265;DHT22;4669;49.594;10.958;2023-04-03T20:51:23;4.60;85.20
9265;DHT22;4669;49.594;10.958;2023-04-03T20:56:28;4.50;85.70
9265;DHT22;4669;49.594;10.958;2023-04-03T21:01:34;4.40;86.20
9265;DHT22;4669;49.594;10.958;2023-04-03T21:23:18;4.30;86.70
9265;DHT22;4669;49.594;10.958;2023-04-03T21:28:24;4.20;87.40
9265;DHT22;4669;49.594;10.958;2023-04-03T21:33:27;4.30;87.60
9265;DHT22;4669;49.594;10.958;2023-04-03T21:38:29;4.20;87.40
9265;DHT22;4669;49.594;10.958;2023-04-03T21:43:32;4.10;88.20
9265;DHT22;4669;49.594;10.958;2023-04-03T21:48:35;4.10;88.10
9265;DHT22;4669;49.594;10.958;2023-04-03T21:53:37;4.10;88.00
9265;DHT22;4669;49.594;10.958;2023-04-03T21:58:40;4.00;87.80
